Time;durP1;ratioP1;P1;durP2;ratioP2;P2;SDS_P1;SDS_P2;PMS_P1;PMS_P2;Temp;Humidity;BMP_temperature;BMP_pressure;BME280_temperature;BME280_humidity;BME280_pressure;Samples;Min_cycle;Max_cycle;Signal;HPM_P1;HPM_P2
2022/05/12 00:00:00;;;;;;;10.18;5.72;;;13.00;99.90;;;;;;5033268;28;20060;-52
2022/05/12 00:02:26;;;;;;;9.02;6.32;;;13.00;99.90;;;;;;5032555;28;20018;-52
2022/05/12 00:04:51;;;;;;;8.27;5.80;;;12.90;99.90;;;;;;5033264;28;20035;-53
2022/05/12 00:07:17;;;;;;;8.45;5.35;;;13.00;99.90;;;;;;5033104;28;20101;-54
2022/05/12 00:09:42;;;;;;;9.85;5.65;;;13.00;99.90;;;;;;5032865;28;20033;-53
2022/05/12 00:12:08;;;;;;;9.07;6.22;;;13.00;99.90;;;;;;5032698;28;20026;-54
2022/05/12 00:14:34;;;;;;;10.50;5.65;;;13.00;99.90;;;;;;5032486;28;20036;-58
2022/05/12 00:17:01;;;;;;;9.90;5.63;;;13.00;99.90;;;;;;5032000;28;20667;-57
2022/05/12 00:19:28;;;;;;;12.32;6.22;;;12.90;99.90;;;;;;5032753;28;20053;-58
2022/05/12 00:21:54;;;;;;;10.38;5.90;;;12.80;99.90;;;;;;5032742;28;20079;-56
2022/05/12 00:24:20;;;;;;;12.02;5.97;;;12.70;99.90;;;;;;5032726;28;20037;-55
2022/05/12 00:26:46;;;;;;;8.38;5.18;;;12.70;99.90;;;;;;5032287;28;20033;-52
2022/05/12 00:29:13;;;;;;;15.32;6.10;;;12.70;99.90;;;;;;5032281;28;20048;-54
2022/05/12 00:31:41;;;;;;;8.70;6.00;;;12.70;99.90;;;;;;5032423;28;20056;-52
2022/05/12 00:34:08;;;;;;;11.70;5.95;;;12.70;99.90;;;;;;5032188;28;20117;-50
2022/05/12 00:36:35;;;;;;;11.45;6.25;;;12.60;99.90;;;;;;5032351;28;20048;-54
2022/05/12 00:39:01;;;;;;;6.43;5.68;;;12.60;99.90;;;;;;5032120;28;20074;-55
2022/05/12 00:41:27;;;;;;;5.65;5.15;;;12.50;99.90;;;;;;5032104;28;20108;-57
2022/05/12 00:44:02;;;;;;;9.82;5.82;;;12.60;99.90;;;;;;5031713;28;20580;-54
2022/05/12 00:46:33;;;;;;;9.43;5.80;;;12.50;99.90;;;;;;5031425;28;20060;-54
2022/05/12 00:49:06;;;;;;;6.65;5.53;;;12.40;99.90;;;;;;5031522;28;20064;-52
2022/05/12 00:51:35;;;;;;;;;;;12.40;99.90;;;;;;5032045;28;20037;-52
2022/05/12 00:54:05;;;;;;;9.60;5.75;;;12.30;99.90;;;;;;5030682;28;19906;-55
2022/05/12 00:56:33;;;;;;;15.95;6.18;;;12.30;99.90;;;;;;5030248;28;20465;-52
2022/05/12 00:59:08;;;;;;;10.50;6.22;;;12.20;99.90;;;;;;5031668;28;20017;-51
2022/05/12 01:01:33;;;;;;;6.72;6.10;;;12.20;99.90;;;;;;5030519;28;20033;-52
2022/05/12 01:04:00;;;;;;;8.73;5.95;;;12.20;99.90;;;;;;5031065;28;20029;-55
2022/05/12 01:06:26;;;;;;;10.82;6.68;;;12.10;99.90;;;;;;5032010;28;20026;-56
2022/05/12 01:08:53;;;;;;;10.75;6.40;;;12.10;99.90;;;;;;5031842;28;20030;-55
2022/05/12 01:11:21;;;;;;;8.65;6.32;;;12.10;99.90;;;;;;5031936;28;20025;-54
2022/05/12 01:14:00;;;;;;;7.60;5.53;;;12.10;99.90;;;;;;5031672;28;20373;-54
2022/05/12 01:16:43;;;;;;;10.15;5.93;;;12.20;99.90;;;;;;5031744;28;20029;-57
2022/05/12 01:19:15;;;;;;;11.27;6.35;;;12.20;99.90;;;;;;5031619;28;20038;-52
2022/05/12 01:21:42;;;;;;;8.20;6.63;;;12.20;99.90;;;;;;5031265;28;20063;-55
2022/05/12 01:24:08;;;;;;;10.18;5.93;;;12.10;99.90;;;;;;5030982;28;20456;-55
2022/05/12 01:26:34;;;;;;;8.85;6.63;;;12.00;99.90;;;;;;5031345;28;20022;-56
2022/05/12 01:29:00;;;;;;;12.13;6.75;;;12.10;99.90;;;;;;5031595;28;20397;-55
2022/05/12 01:31:26;;;;;;;12.50;6.82;;;12.00;99.90;;;;;;5031825;28;20021;-55
2022/05/12 01:33:52;;;;;;;6.93;5.50;;;12.00;99.90;;;;;;5031738;28;20025;-53
2022/05/12 01:36:19;;;;;;;10.27;7.28;;;12.10;99.90;;;;;;5031673;28;20489;-55
2022/05/12 01:38:45;;;;;;;10.90;6.10;;;12.00;99.90;;;;;;5031490;28;20033;-55
2022/05/12 01:41:11;;;;;;;12.85;7.30;;;12.00;99.90;;;;;;5031868;28;20132;-54
2022/05/12 01:43:36;;;;;;;8.57;6.47;;;12.00;99.90;;;;;;5031464;28;20025;-56
2022/05/12 01:46:03;;;;;;;11.25;6.18;;;12.00;99.90;;;;;;5031036;28;20026;-53
2022/05/12 01:48:28;;;;;;;10.35;5.85;;;12.00;99.90;;;;;;5031493;28;20116;-52
2022/05/12 01:50:55;;;;;;;11.48;6.90;;;11.90;99.90;;;;;;5031185;28;20123;-53
2022/05/12 01:53:20;;;;;;;12.07;6.63;;;11.90;99.90;;;;;;5031200;28;20033;-56
2022/05/12 01:55:49;;;;;;;13.40;6.10;;;11.90;99.90;;;;;;5031332;28;20033;-57
2022/05/12 01:58:20;;;;;;;15.05;6.28;;;11.90;99.90;;;;;;5030864;28;20026;-53
2022/05/12 02:00:46;;;;;;;15.30;6.97;;;12.00;99.90;;;;;;5030880;28;20025;-54
2022/05/12 02:03:11;;;;;;;12.50;5.50;;;11.90;99.90;;;;;;5031267;28;20041;-54
2022/05/12 02:05:39;;;;;;;11.57;6.43;;;11.90;99.90;;;;;;5031098;28;20076;-55
2022/05/12 02:08:07;;;;;;;17.90;6.13;;;11.80;99.90;;;;;;5031225;28;20496;-55
2022/05/12 02:10:37;;;;;;;10.40;6.35;;;11.80;99.90;;;;;;5034790;28;20108;-56
2022/05/12 02:13:07;;;;;;;11.27;6.95;;;11.80;99.90;;;;;;5035178;28;20034;-56
2022/05/12 02:15:34;;;;;;;12.02;7.00;;;11.70;99.90;;;;;;5035076;28;20079;-53
2022/05/12 02:17:59;;;;;;;11.82;6.43;;;11.70;99.90;;;;;;5035348;28;20026;-55
2022/05/12 02:22:18;;;;;;;11.07;6.55;;;11.80;99.90;;;;;;5088366;27;20778;-55
2022/05/12 02:24:44;;;;;;;14.52;6.00;;;11.80;99.90;;;;;;5088548;28;20028;-55
2022/05/12 02:27:10;;;;;;;7.95;6.43;;;11.80;99.90;;;;;;5086997;28;20024;-51
2022/05/12 02:29:35;;;;;;;7.05;5.90;;;11.70;99.90;;;;;;5086795;28;20356;-56
2022/05/12 02:32:01;;;;;;;17.30;6.90;;;11.60;99.90;;;;;;5086844;28;20031;-53
2022/05/12 02:34:27;;;;;;;9.65;6.03;;;11.50;99.90;;;;;;5086352;28;20032;-55
2022/05/12 02:37:01;;;;;;;9.23;6.97;;;11.50;99.90;;;;;;5088283;28;20035;-51
2022/05/12 02:39:29;;;;;;;8.40;6.47;;;11.60;99.90;;;;;;5088160;28;20333;-51
2022/05/12 02:41:55;;;;;;;8.90;6.00;;;11.60;99.90;;;;;;5087852;28;20036;-52
2022/05/12 02:44:20;;;;;;;10.40;6.00;;;11.50;99.90;;;;;;5087088;28;20026;-54
2022/05/12 02:46:46;;;;;;;9.45;6.45;;;11.50;99.90;;;;;;5087630;28;20099;-53
2022/05/12 02:49:12;;;;;;;13.32;7.80;;;11.50;99.90;;;;;;5088427;28;20455;-56
2022/05/12 02:51:37;;;;;;;6.93;6.22;;;11.20;99.90;;;;;;5088116;28;20028;-54
2022/05/12 02:54:03;;;;;;;8.77;7.07;;;11.20;99.90;;;;;;5088296;28;20028;-55
2022/05/12 02:56:29;;;;;;;14.20;7.10;;;11.30;99.90;;;;;;5088340;28;20063;-52
2022/05/12 02:58:54;;;;;;;8.15;6.57;;;11.30;99.90;;;;;;5088506;28;20052;-51
2022/05/12 03:01:20;;;;;;;12.13;6.75;;;11.30;99.90;;;;;;5088372;28;20464;-54
2022/05/12 03:03:46;;;;;;;11.57;6.22;;;11.30;99.90;;;;;;5086699;28;20501;-56
2022/05/12 03:06:12;;;;;;;12.60;7.25;;;11.30;99.90;;;;;;5088076;28;20028;-52
2022/05/12 03:08:42;;;;;;;7.88;6.38;;;11.20;99.90;;;;;;5087201;28;20032;-51
2022/05/12 03:11:08;;;;;;;10.70;6.88;;;11.20;99.90;;;;;;5087870;28;20024;-53
2022/05/12 03:13:34;;;;;;;7.93;7.00;;;11.10;99.90;;;;;;5087680;28;20043;-56
2022/05/12 03:16:00;;;;;;;17.48;6.88;;;11.20;99.90;;;;;;5087363;28;20440;-54
2022/05/12 03:18:26;;;;;;;9.00;6.30;;;11.30;99.90;;;;;;5087739;28;20032;-52
2022/05/12 03:20:52;;;;;;;12.48;6.57;;;11.20;99.90;;;;;;5087161;28;20032;-54
2022/05/12 03:23:21;;;;;;;8.23;7.13;;;11.30;99.90;;;;;;5087392;28;20052;-53
2022/05/12 03:25:47;;;;;;;10.02;6.55;;;11.30;99.90;;;;;;5087487;28;20407;-55
2022/05/12 03:28:12;;;;;;;9.10;7.38;;;11.30;99.90;;;;;;5087039;28;20028;-51
2022/05/12 03:30:38;;;;;;;11.98;6.95;;;11.30;99.90;;;;;;5087303;28;20028;-49
2022/05/12 03:33:03;;;;;;;9.77;7.40;;;11.40;99.90;;;;;;5077304;28;20020;-52
2022/05/12 03:35:29;;;;;;;9.70;7.93;;;11.40;99.90;;;;;;5073903;28;20112;-50
2022/05/12 03:37:55;;;;;;;17.45;7.00;;;11.50;99.90;;;;;;5073764;28;20107;-54
2022/05/12 03:40:20;;;;;;;9.82;6.97;;;11.50;99.90;;;;;;5072637;28;20027;-54
2022/05/12 03:42:47;;;;;;;9.55;7.10;;;11.50;99.90;;;;;;5073958;28;20035;-55
2022/05/12 03:45:13;;;;;;;10.90;7.45;;;11.60;99.90;;;;;;5073646;28;20445;-52
2022/05/12 03:47:41;;;;;;;9.40;7.30;;;11.50;99.90;;;;;;5072627;28;20028;-54
2022/05/12 03:50:16;;;;;;;13.52;7.93;;;11.50;99.90;;;;;;5073179;28;20021;-52
2022/05/12 03:52:42;;;;;;;12.07;7.03;;;11.60;99.90;;;;;;5073366;28;20032;-54
2022/05/12 03:55:11;;;;;;;9.50;7.78;;;11.70;99.90;;;;;;5073257;28;20040;-55
2022/05/12 03:57:38;;;;;;;15.55;7.63;;;11.80;99.90;;;;;;5073670;28;20027;-51
2022/05/12 04:00:06;;;;;;;12.10;7.85;;;11.90;99.90;;;;;;5073382;28;20062;-53
2022/05/12 04:02:32;;;;;;;8.57;7.28;;;11.90;99.90;;;;;;5073205;28;20020;-54
2022/05/12 04:04:59;;;;;;;10.35;7.53;;;11.90;99.90;;;;;;5073549;28;20027;-53
2022/05/12 04:07:25;;;;;;;9.27;7.63;;;12.00;99.90;;;;;;5073558;28;20021;-51
2022/05/12 04:09:51;;;;;;;13.32;7.25;;;12.00;99.90;;;;;;5073205;28;20023;-52
2022/05/12 04:12:17;;;;;;;11.15;7.72;;;12.00;99.90;;;;;;5073550;28;20035;-51
2022/05/12 04:14:43;;;;;;;9.20;7.20;;;12.00;99.90;;;;;;5071478;28;20437;-51
2022/05/12 04:17:13;;;;;;;19.15;8.60;;;12.10;99.90;;;;;;5071303;28;20028;-50
2022/05/12 04:19:40;;;;;;;10.60;7.85;;;12.10;99.90;;;;;;5071605;28;20051;-54
2022/05/12 04:22:06;;;;;;;14.30;8.40;;;12.20;99.90;;;;;;5071315;28;20052;-55
2022/05/12 04:24:32;;;;;;;10.57;7.30;;;12.20;99.90;;;;;;5070118;28;20043;-53
2022/05/12 04:26:58;;;;;;;14.98;8.32;;;12.20;99.90;;;;;;5071431;28;20417;-48
2022/05/12 04:29:24;;;;;;;15.35;7.53;;;12.30;99.90;;;;;;5071694;28;20028;-51
2022/05/12 04:31:49;;;;;;;9.63;8.40;;;12.40;99.90;;;;;;5072252;28;20040;-54
2022/05/12 04:36:59;;;;;;;11.88;7.80;;;12.60;99.90;;;;;;5072957;28;20537;-52
2022/05/12 04:39:25;;;;;;;12.30;7.05;;;12.60;99.90;;;;;;5073082;28;20032;-51
2022/05/12 04:41:51;;;;;;;11.43;7.28;;;12.70;99.90;;;;;;5072657;28;20467;-48
2022/05/12 04:44:16;;;;;;;9.98;6.85;;;12.80;99.90;;;;;;5071866;28;20029;-56
2022/05/12 04:46:43;;;;;;;11.30;8.20;;;12.90;99.90;;;;;;5072740;28;20025;-55
2022/05/12 04:49:10;;;;;;;10.43;7.18;;;13.00;99.90;;;;;;5072776;28;20029;-52
2022/05/12 04:51:37;;;;;;;9.15;7.55;;;13.20;99.90;;;;;;5072609;28;20029;-55
2022/05/12 04:54:09;;;;;;;11.40;6.70;;;13.40;99.90;;;;;;5072341;28;20420;-55
2022/05/12 04:56:36;;;;;;;8.60;7.18;;;13.60;99.90;;;;;;5072290;28;20448;-54
2022/05/12 04:59:01;;;;;;;21.60;8.88;;;13.80;99.90;;;;;;5072334;28;20081;-54
2022/05/12 05:01:27;;;;;;;11.43;8.00;;;14.00;99.90;;;;;;5072042;28;20044;-55
2022/05/12 05:03:52;;;;;;;12.45;7.70;;;14.30;99.90;;;;;;5072350;28;20025;-56
2022/05/12 05:06:18;;;;;;;15.52;7.72;;;14.50;99.90;;;;;;5072189;28;20024;-56
2022/05/12 05:08:44;;;;;;;18.58;8.00;;;14.70;99.90;;;;;;5072154;28;20036;-50
2022/05/12 05:11:09;;;;;;;10.18;7.38;;;15.00;99.90;;;;;;5072141;28;20032;-55
2022/05/12 05:13:35;;;;;;;13.25;7.97;;;15.20;99.90;;;;;;5072049;28;20577;-54
2022/05/12 05:16:02;;;;;;;9.95;7.35;;;15.50;99.90;;;;;;5071738;28;20028;-56
2022/05/12 05:18:28;;;;;;;15.63;8.85;;;15.70;99.90;;;;;;5071914;28;20565;-56
2022/05/12 05:20:53;;;;;;;14.30;7.07;;;15.90;99.90;;;;;;5072182;28;20052;-53
2022/05/12 05:23:21;;;;;;;9.25;7.88;;;16.30;99.90;;;;;;5072204;28;20029;-52
2022/05/12 05:25:50;;;;;;;10.27;8.18;;;16.40;99.90;;;;;;5072049;28;20020;-54
2022/05/12 05:28:16;;;;;;;9.40;6.88;;;16.50;99.90;;;;;;5072096;28;20021;-53
2022/05/12 05:30:42;;;;;;;16.55;8.00;;;16.60;99.90;;;;;;5071850;28;20074;-53
2022/05/12 05:33:09;;;;;;;11.90;7.38;;;16.60;99.90;;;;;;5071968;28;20365;-56
2022/05/12 05:35:35;;;;;;;10.20;6.78;;;16.50;99.90;;;;;;5071810;28;20029;-53
2022/05/12 05:38:01;;;;;;;14.55;9.48;;;16.40;99.90;;;;;;5071596;28;20024;-55
2022/05/12 05:40:28;;;;;;;12.43;7.60;;;16.20;99.90;;;;;;5071573;28;20040;-52
2022/05/12 05:42:55;;;;;;;8.93;7.55;;;16.20;99.90;;;;;;5069454;28;20516;-54
2022/05/12 05:45:20;;;;;;;9.68;6.82;;;16.30;99.90;;;;;;5070812;28;20020;-56
2022/05/12 05:47:49;;;;;;;14.93;6.20;;;16.40;99.90;;;;;;5070598;28;20039;-53
2022/05/12 05:50:19;;;;;;;8.88;6.82;;;16.40;99.90;;;;;;5070685;28;20453;-52
2022/05/12 05:55:29;;;;;;;8.40;7.35;;;16.30;99.90;;;;;;5070377;28;20062;-54
2022/05/12 05:57:58;;;;;;;8.35;7.30;;;16.40;99.90;;;;;;5070885;28;20056;-54
2022/05/12 06:00:24;;;;;;;8.73;7.00;;;16.60;99.90;;;;;;5070022;28;20028;-57
2022/05/12 06:02:50;;;;;;;9.57;5.82;;;16.90;99.90;;;;;;5071527;28;20035;-55
2022/05/12 06:05:17;;;;;;;13.85;4.95;;;17.10;99.90;;;;;;5071480;28;20017;-56
2022/05/12 06:07:44;;;;;;;9.27;5.25;;;17.50;99.90;;;;;;5071269;28;20425;-56
2022/05/12 06:10:10;;;;;;;6.20;4.82;;;17.80;99.90;;;;;;5070261;28;20066;-57
2022/05/12 06:12:38;;;;;;;10.20;5.05;;;18.20;99.90;;;;;;5071416;28;20052;-56
2022/05/12 06:15:05;;;;;;;9.98;4.78;;;18.50;99.90;;;;;;5071083;28;20532;-56
2022/05/12 06:17:31;;;;;;;6.78;4.20;;;18.60;99.90;;;;;;5071081;28;20066;-53
2022/05/12 06:20:00;;;;;;;6.68;4.75;;;18.80;99.90;;;;;;5071192;28;20024;-55
2022/05/12 06:22:26;;;;;;;10.82;4.55;;;19.20;99.90;;;;;;5071428;28;20024;-54
2022/05/12 06:24:52;;;;;;;11.98;4.50;;;19.30;99.90;;;;;;5070451;28;20039;-56
2022/05/12 06:27:22;;;;;;;6.55;5.20;;;19.50;99.90;;;;;;5070612;28;20020;-57
2022/05/12 06:29:48;;;;;;;13.27;3.92;;;19.70;99.90;;;;;;5070643;28;20028;-57
2022/05/12 06:32:15;;;;;;;8.40;4.53;;;19.80;99.90;;;;;;5071020;28;20400;-55
2022/05/12 06:34:42;;;;;;;9.32;4.03;;;20.00;99.90;;;;;;5070992;28;20024;-56
2022/05/12 06:37:09;;;;;;;10.98;4.50;;;20.20;99.90;;;;;;5071318;28;20020;-57
2022/05/12 06:39:35;;;;;;;6.68;3.60;;;20.40;99.90;;;;;;5071268;28;20035;-56
2022/05/12 06:42:01;;;;;;;15.88;3.58;;;20.60;98.30;;;;;;5071007;28;20111;-56
2022/05/12 06:44:27;;;;;;;9.10;3.38;;;20.90;96.80;;;;;;5071147;28;20460;-57
2022/05/12 06:46:53;;;;;;;8.85;3.15;;;21.20;93.40;;;;;;5071218;28;20039;-54
2022/05/12 06:49:20;;;;;;;15.23;3.20;;;21.40;92.10;;;;;;5070925;28;20472;-55
2022/05/12 06:51:45;;;;;;;18.25;3.92;;;21.50;91.90;;;;;;5069659;28;20086;-53
2022/05/12 06:54:12;;;;;;;10.70;2.80;;;21.60;90.40;;;;;;5070047;28;20013;-56
2022/05/12 06:56:38;;;;;;;4.68;2.88;;;21.80;91.50;;;;;;5069807;28;20021;-57
2022/05/12 06:59:03;;;;;;;4.97;3.00;;;21.90;88.00;;;;;;5070299;28;20082;-54
2022/05/12 07:01:29;;;;;;;7.72;2.53;;;21.90;87.80;;;;;;5070185;28;20032;-55
2022/05/12 07:03:58;;;;;;;11.57;2.83;;;22.00;88.60;;;;;;5070827;28;20028;-55
2022/05/12 07:06:24;;;;;;;7.38;3.00;;;22.10;86.40;;;;;;5070723;28;20027;-56
2022/05/12 07:08:50;;;;;;;9.18;3.17;;;22.10;86.60;;;;;;5073161;28;20103;-57
2022/05/12 07:11:15;;;;;;;5.18;2.97;;;22.20;85.40;;;;;;5074604;28;20023;-56
2022/05/12 07:13:41;;;;;;;17.08;2.80;;;22.20;84.50;;;;;;5074519;28;20112;-54
2022/05/12 07:16:07;;;;;;;4.85;2.70;;;22.30;86.00;;;;;;5074488;28;20035;-55
2022/05/12 07:18:34;;;;;;;8.95;2.60;;;22.30;84.70;;;;;;5074357;28;20059;-56
2022/05/12 07:26:36;;;;;;;5.55;2.90;;;22.50;85.50;;;;;;5074390;28;20059;-54
2022/05/12 07:29:09;;;;;;;5.30;2.70;;;22.60;80.00;;;;;;5074236;28;20078;-54
2022/05/12 07:31:35;;;;;;;13.93;2.50;;;22.70;84.90;;;;;;5074450;28;20043;-56
2022/05/12 07:34:00;;;;;;;10.32;6.88;;;22.80;80.30;;;;;;5073979;28;20036;-51
2022/05/12 07:36:32;;;;;;;9.25;2.95;;;22.90;80.80;;;;;;5074218;28;20376;-56
2022/05/12 07:39:00;;;;;;;16.60;2.95;;;23.00;78.80;;;;;;5074277;28;20024;-56
2022/05/12 07:41:26;;;;;;;11.50;3.00;;;23.20;82.30;;;;;;5074074;28;20050;-53
2022/05/12 07:43:52;;;;;;;10.75;3.13;;;23.20;79.60;;;;;;5073999;28;20021;-52
2022/05/12 07:46:21;;;;;;;8.38;2.97;;;23.20;76.40;;;;;;5074175;28;20031;-55
2022/05/12 07:48:48;;;;;;;6.38;2.75;;;23.30;76.90;;;;;;5073606;28;20104;-53
2022/05/12 07:51:15;;;;;;;6.72;2.88;;;23.00;74.00;;;;;;5073889;28;20032;-55
2022/05/12 07:53:41;;;;;;;4.90;3.13;;;23.00;77.50;;;;;;5073938;28;20028;-57
2022/05/12 07:56:08;;;;;;;9.25;3.15;;;23.20;77.30;;;;;;5073711;28;20493;-57
2022/05/12 07:58:35;;;;;;;5.22;2.60;;;23.20;76.20;;;;;;5073165;28;20016;-56
2022/05/12 08:01:01;;;;;;;9.25;3.22;;;23.30;76.20;;;;;;5073584;28;20048;-57
2022/05/12 08:03:26;;;;;;;13.88;2.97;;;23.50;75.50;;;;;;5073592;28;20048;-57
2022/05/12 08:05:53;;;;;;;7.38;2.90;;;23.60;77.70;;;;;;5073319;28;20036;-56
2022/05/12 08:08:19;;;;;;;6.80;2.53;;;23.70;80.70;;;;;;5073399;28;20033;-54
2022/05/12 08:10:45;;;;;;;9.40;2.55;;;23.60;76.10;;;;;;5072826;28;20071;-56
2022/05/12 08:13:17;;;;;;;7.70;2.80;;;23.70;78.20;;;;;;5073382;28;20070;-56
2022/05/12 08:15:46;;;;;;;7.13;2.88;;;23.70;73.90;;;;;;5073487;28;20044;-54
2022/05/12 08:18:12;;;;;;;7.38;3.25;;;23.60;74.90;;;;;;5073131;28;20108;-52
2022/05/12 08:20:39;;;;;;;9.30;2.72;;;23.60;74.80;;;;;;5073140;28;20504;-56
2022/05/12 08:23:05;;;;;;;8.45;3.38;;;23.80;75.60;;;;;;5073357;28;20025;-52
2022/05/12 08:25:31;;;;;;;22.92;3.10;;;24.00;74.70;;;;;;5072936;28;20111;-57
2022/05/12 08:27:57;;;;;;;9.70;3.33;;;24.10;72.80;;;;;;5073089;28;20161;-54
2022/05/12 08:30:22;;;;;;;14.45;2.83;;;24.40;75.70;;;;;;5073239;28;20044;-56
2022/05/12 08:32:48;;;;;;;8.10;3.55;;;24.30;71.50;;;;;;5071426;28;20223;-54
2022/05/12 08:35:14;;;;;;;8.70;2.42;;;23.90;71.90;;;;;;5073039;28;20113;-54
2022/05/12 08:37:40;;;;;;;5.60;2.88;;;24.10;72.60;;;;;;5072944;28;20029;-56
2022/05/12 08:40:11;;;;;;;14.57;3.25;;;24.10;73.40;;;;;;5072915;28;20032;-55
2022/05/12 08:42:46;;;;;;;15.93;3.58;;;24.10;72.10;;;;;;5073053;28;20031;-55
2022/05/12 08:45:18;;;;;;;4.88;2.95;;;24.30;70.80;;;;;;5072984;28;20035;-56
2022/05/12 08:47:48;;;;;;;9.55;3.10;;;24.60;71.80;;;;;;5072825;28;20074;-55
2022/05/12 08:50:26;;;;;;;9.63;2.85;;;24.50;71.30;;;;;;5072838;28;20035;-54
2022/05/12 08:52:57;;;;;;;5.32;2.72;;;24.60;72.10;;;;;;5072018;28;20028;-52
2022/05/12 08:55:44;;;;;;;10.18;2.58;;;24.80;70.20;;;;;;5072443;28;20020;-56
2022/05/12 08:58:26;;;;;;;9.85;2.60;;;25.00;70.00;;;;;;5072661;28;20472;-56
2022/05/12 09:01:17;;;;;;;21.00;2.80;;;25.00;71.10;;;;;;5072595;28;20376;-56
2022/05/12 09:04:10;;;;;;;8.88;2.92;;;24.80;68.30;;;;;;5071763;28;20027;-57
2022/05/12 09:06:48;;;;;;;7.65;3.28;;;24.60;68.90;;;;;;5071882;28;20070;-51
2022/05/12 09:09:39;;;;;;;8.18;3.20;;;24.50;69.30;;;;;;5072450;28;20074;-56
2022/05/12 09:12:41;;;;;;;11.48;3.28;;;24.70;68.90;;;;;;5072310;28;20477;-54
2022/05/12 09:15:09;;;;;;;7.95;2.80;;;24.60;68.30;;;;;;5072139;28;20031;-52
2022/05/12 09:17:42;;;;;;;8.98;3.10;;;24.00;68.80;;;;;;5072265;28;20020;-50
2022/05/12 09:20:10;;;;;;;8.85;2.85;;;24.00;69.60;;;;;;5072089;28;20028;-54
2022/05/12 09:22:37;;;;;;;16.88;3.95;;;24.10;69.80;;;;;;5072005;28;20047;-54
2022/05/12 09:25:03;;;;;;;20.83;3.53;;;24.40;68.80;;;;;;5072097;28;20033;-58
2022/05/12 09:27:34;;;;;;;4.80;2.78;;;24.20;69.30;;;;;;5071990;28;20050;-57
2022/05/12 09:30:00;;;;;;;10.35;2.83;;;24.00;69.40;;;;;;5071589;28;20369;-57
2022/05/12 09:32:31;;;;;;;8.05;2.95;;;24.20;68.70;;;;;;5071991;28;20074;-55
2022/05/12 09:35:25;;;;;;;3.92;2.75;;;24.40;70.60;;;;;;5071887;28;20024;-54
2022/05/12 09:37:51;;;;;;;5.15;3.05;;;25.20;69.10;;;;;;5071493;28;20020;-58
2022/05/12 09:40:35;;;;;;;5.15;3.03;;;25.10;67.80;;;;;;5071808;28;20039;-55
2022/05/12 09:43:24;;;;;;;6.53;3.83;;;25.20;69.70;;;;;;5071817;28;20095;-54
2022/05/12 09:46:17;;;;;;;10.93;3.65;;;25.60;68.50;;;;;;5070045;28;20626;-57
2022/05/12 09:48:47;;;;;;;4.53;2.55;;;25.90;68.50;;;;;;5071713;28;20460;-58
2022/05/12 09:51:18;;;;;;;10.38;3.38;;;26.00;67.40;;;;;;5071360;28;20028;-57
2022/05/12 09:53:43;;;;;;;14.23;3.00;;;26.00;67.60;;;;;;5067701;28;20033;-55
2022/05/12 09:56:26;;;;;;;8.63;3.53;;;26.20;69.80;;;;;;5051558;28;20029;-56
2022/05/12 09:59:02;;;;;;;6.88;3.17;;;26.20;69.20;;;;;;5051476;28;20025;-56
2022/05/12 10:01:30;;;;;;;14.05;2.92;;;25.80;67.00;;;;;;5051272;28;20029;-57
2022/05/12 10:09:57;;;;;;;11.52;3.17;;;26.00;67.30;;;;;;5051486;28;20067;-56
2022/05/12 10:12:30;;;;;;;4.32;3.05;;;25.90;67.70;;;;;;5049752;28;20464;-54
2022/05/12 10:15:03;;;;;;;10.00;3.17;;;26.30;67.50;;;;;;5050182;28;20029;-57
2022/05/12 10:17:44;;;;;;;10.93;3.10;;;26.60;66.30;;;;;;5050179;28;20025;-58
2022/05/12 10:20:14;;;;;;;7.85;3.13;;;26.80;72.90;;;;;;5050585;28;20037;-53
2022/05/12 10:23:04;;;;;;;15.10;3.08;;;26.80;65.30;;;;;;5050581;28;20365;-55
2022/05/12 10:25:56;;;;;;;10.88;4.55;;;26.90;68.00;;;;;;5049934;28;20025;-55
2022/05/12 10:28:31;;;;;;;5.80;3.17;;;26.70;67.10;;;;;;5050399;28;20098;-57
2022/05/12 10:30:57;;;;;;;6.10;3.17;;;26.70;65.70;;;;;;5051247;28;20032;-55
2022/05/12 10:33:32;;;;;;;6.93;3.10;;;26.90;63.30;;;;;;5050969;28;20033;-56
2022/05/12 10:36:26;;;;;;;7.43;2.75;;;27.00;64.30;;;;;;5051080;28;20028;-56
2022/05/12 10:38:54;;;;;;;8.02;2.65;;;26.90;64.70;;;;;;5051148;28;20032;-57
2022/05/12 10:41:30;;;;;;;13.80;3.15;;;26.80;62.00;;;;;;5050810;28;20100;-52
2022/05/12 10:44:27;;;;;;;10.02;2.63;;;26.80;61.10;;;;;;5054866;28;20352;-55
2022/05/12 10:47:24;;;;;;;9.57;2.67;;;27.30;61.90;;;;;;5054493;28;20530;-58
2022/05/12 10:50:18;;;;;;;8.27;2.97;;;27.30;62.50;;;;;;5054393;28;20495;-57
2022/05/12 10:52:52;;;;;;;7.30;3.00;;;27.60;62.40;;;;;;5054943;28;20051;-58
2022/05/12 10:55:29;;;;;;;5.45;2.67;;;27.60;61.20;;;;;;5054678;28;20032;-54
2022/05/12 10:58:22;;;;;;;5.57;2.60;;;28.10;62.70;;;;;;5054652;28;20017;-56
2022/05/12 11:00:51;;;;;;;9.82;2.80;;;27.90;59.00;;;;;;5054566;28;20025;-55
2022/05/12 11:03:29;;;;;;;8.02;2.75;;;28.10;63.70;;;;;;5054832;28;20040;-56
2022/05/12 11:06:01;;;;;;;9.73;3.08;;;27.80;60.80;;;;;;5054867;28;20032;-56
2022/05/12 11:08:36;;;;;;;6.15;3.05;;;28.10;59.70;;;;;;5054698;28;20036;-57
2022/05/12 11:11:24;;;;;;;5.97;3.05;;;28.10;61.50;;;;;;5054698;28;20037;-57
2022/05/12 11:14:04;;;;;;;4.45;2.75;;;28.20;60.10;;;;;;5054054;28;20021;-58
2022/05/12 11:16:57;;;;;;;8.77;3.22;;;28.60;60.40;;;;;;5054003;28;20528;-55
2022/05/12 11:19:24;;;;;;;8.50;3.03;;;28.20;59.80;;;;;;5054076;28;20029;-58
2022/05/12 11:22:10;;;;;;;11.88;2.97;;;28.00;58.50;;;;;;5054050;28;20484;-56
2022/05/12 11:24:42;;;;;;;5.13;3.05;;;27.70;58.90;;;;;;5053049;28;20513;-58
2022/05/12 11:27:35;;;;;;;5.90;2.70;;;28.20;60.60;;;;;;5054481;28;20461;-54
2022/05/12 11:30:22;;;;;;;7.28;2.95;;;28.70;61.20;;;;;;5054375;28;20056;-53
2022/05/12 11:33:12;;;;;;;7.68;2.80;;;28.70;57.20;;;;;;5053610;28;20033;-55
2022/05/12 11:35:45;;;;;;;10.20;2.60;;;28.50;57.50;;;;;;5054006;28;20033;-56
2022/05/12 11:38:37;;;;;;;4.55;2.60;;;28.70;59.40;;;;;;5053952;28;20024;-56
2022/05/12 11:41:05;;;;;;;3.28;2.72;;;27.90;56.60;;;;;;5053798;28;20029;-57
2022/05/12 11:46:39;;;;;;;6.18;3.10;;;28.20;56.70;;;;;;5053565;28;20502;-57
2022/05/12 11:49:16;;;;;;;10.40;3.33;;;29.10;58.70;;;;;;5054082;28;20025;-57
2022/05/12 11:52:17;;;;;;;7.40;2.88;;;29.50;59.40;;;;;;5053930;28;20037;-58
2022/05/12 11:54:54;;;;;;;5.60;2.92;;;30.20;57.30;;;;;;5053465;28;20036;-56
2022/05/12 11:57:32;;;;;;;10.93;3.60;;;30.90;58.00;;;;;;5053934;28;20028;-58
2022/05/12 12:00:00;;;;;;;20.73;3.17;;;31.30;54.20;;;;;;5053899;28;20389;-56
2022/05/12 12:02:29;;;;;;;13.18;3.40;;;32.40;53.00;;;;;;5053389;28;20024;-58
2022/05/12 12:04:59;;;;;;;3.63;2.80;;;33.10;51.40;;;;;;5053566;28;20028;-57
2022/05/12 12:07:30;;;;;;;6.72;2.95;;;33.80;48.70;;;;;;5053558;28;20079;-58
2022/05/12 12:10:02;;;;;;;13.15;2.45;;;33.40;47.10;;;;;;5053573;28;20017;-58
2022/05/12 12:12:40;;;;;;;10.18;2.80;;;34.00;45.80;;;;;;5053748;28;20043;-58
2022/05/12 12:15:08;;;;;;;8.40;2.35;;;32.80;45.20;;;;;;5053527;28;20079;-57
2022/05/12 12:17:39;;;;;;;9.68;2.38;;;33.50;48.50;;;;;;5053444;28;20029;-58
2022/05/12 12:20:05;;;;;;;5.25;3.22;;;33.00;46.50;;;;;;5053188;28;20029;-55
2022/05/12 12:22:49;;;;;;;13.82;3.03;;;31.90;48.50;;;;;;5053204;28;20362;-57
2022/05/12 12:25:26;;;;;;;14.45;3.20;;;31.60;48.40;;;;;;5052827;28;20083;-58
2022/05/12 12:27:52;;;;;;;5.72;3.45;;;30.60;48.60;;;;;;5052886;28;20467;-57
2022/05/12 12:30:23;;;;;;;9.88;2.88;;;30.10;52.30;;;;;;5052896;28;20032;-55
2022/05/12 12:33:10;;;;;;;9.20;2.67;;;30.30;50.90;;;;;;5052739;28;20380;-55
2022/05/12 12:36:17;;;;;;;8.50;3.03;;;29.40;48.70;;;;;;5052831;28;20021;-64
2022/05/12 12:38:48;;;;;;;8.13;3.63;;;29.60;50.40;;;;;;5031068;28;20052;-56
2022/05/12 12:41:30;;;;;;;13.05;3.65;;;29.50;50.40;;;;;;5042168;28;20033;-58
2022/05/12 12:44:17;;;;;;;10.25;3.10;;;30.10;52.50;;;;;;5041437;28;20033;-58
2022/05/12 12:47:01;;;;;;;8.38;3.63;;;30.70;50.40;;;;;;5042194;28;20029;-59
2022/05/12 12:49:32;;;;;;;10.80;2.80;;;31.20;49.40;;;;;;5041715;28;20028;-57
2022/05/12 12:52:03;;;;;;;8.20;2.92;;;31.50;49.90;;;;;;5041613;28;20434;-59
2022/05/12 12:57:23;;;;;;;13.98;3.28;;;30.10;48.90;;;;;;5041296;28;20044;-58
2022/05/12 12:59:55;;;;;;;11.50;3.72;;;29.00;51.00;;;;;;5039851;28;20046;-58
2022/05/12 13:02:41;;;;;;;8.90;4.15;;;28.50;52.70;;;;;;5042330;28;20043;-59
2022/05/12 13:05:12;;;;;;;5.35;2.97;;;29.00;53.60;;;;;;5041055;28;20032;-55
2022/05/12 13:07:40;;;;;;;9.90;3.88;;;28.40;52.50;;;;;;5041691;28;22307;-58
2022/05/12 13:10:16;;;;;;;21.35;3.75;;;28.10;53.10;;;;;;5041390;28;20460;-57
2022/05/12 13:13:01;;;;;;;10.30;3.30;;;28.00;53.20;;;;;;5040723;28;20036;-59
2022/05/12 13:15:27;;;;;;;5.45;3.33;;;27.80;53.10;;;;;;5041084;28;20432;-55
2022/05/12 13:17:58;;;;;;;11.43;3.40;;;28.60;52.90;;;;;;5045797;28;20112;-58
2022/05/12 13:20:31;;;;;;;15.45;6.20;;;30.20;55.20;;;;;;5051819;28;20071;-59
2022/05/12 13:23:05;;;;;;;10.73;3.10;;;31.30;51.20;;;;;;5051664;28;20092;-59